createdAt,value
2023-05-05T00:18:00.859Z,99363.56
2023-05-05T00:38:02.759Z,99330.09
2023-05-05T00:58:04.321Z,99330.56
2023-05-05T01:18:06.224Z,99314.34
2023-05-05T01:38:07.901Z,99312.41
2023-05-05T01:58:11.482Z,99310.63
2023-05-05T02:18:13.040Z,99302.00
2023-05-05T02:38:14.818Z,99289.63
2023-05-05T02:58:16.764Z,99294.53
2023-05-05T03:18:20.054Z,99290.53
2023-05-05T03:38:27.870Z,99302.44
2023-05-05T03:58:29.792Z,99303.25
2023-05-05T04:18:31.480Z,99316.06
2023-05-05T04:38:34.264Z,99342.03
2023-05-05T04:58:37.104Z,99366.91
2023-05-05T05:18:39.079Z,99380.44
2023-05-05T05:38:41.356Z,99375.75
2023-05-05T05:58:44.445Z,99411.00
2023-05-05T06:18:46.209Z,99402.75
2023-05-05T06:38:48.099Z,99415.44
2023-05-05T06:58:51.739Z,99415.88
2023-05-05T07:18:54.112Z,99408.75
2023-05-05T07:38:55.658Z,99413.69
2023-05-05T07:58:57.573Z,99410.97
2023-05-05T08:18:59.085Z,99408.63
2023-05-05T08:39:01.923Z,99409.13
2023-05-05T08:59:03.522Z,99394.84
2023-05-05T09:19:05.436Z,99393.34
2023-05-05T09:39:08.084Z,99356.75
2023-05-05T09:59:09.884Z,99355.19
2023-05-05T10:19:13.145Z,99352.41
2023-05-05T10:39:15.038Z,99331.56
2023-05-05T10:59:16.501Z,99338.25
2023-05-05T11:19:18.381Z,99314.09
2023-05-05T11:39:22.288Z,99293.88
2023-05-05T11:59:25.244Z,99284.00
2023-05-05T12:40:14.806Z,99248.19
2023-05-05T13:00:16.296Z,99240.31
2023-05-05T13:20:17.952Z,99204.91
2023-05-05T13:40:19.426Z,99174.72
2023-05-05T14:00:21.153Z,99159.91
2023-05-05T14:20:22.697Z,99134.31
2023-05-05T14:40:24.510Z,99130.03
2023-05-05T15:00:25.963Z,99108.50
2023-05-05T15:20:27.700Z,99101.53
2023-05-05T15:40:29.226Z,99106.91
2023-05-05T16:00:30.939Z,99093.56
2023-05-05T16:20:32.410Z,99083.94
2023-05-05T16:40:34.081Z,99076.28
2023-05-05T17:00:35.514Z,99067.56
2023-05-05T17:20:37.214Z,99067.75
2023-05-05T17:40:38.712Z,99073.47
2023-05-05T18:00:40.405Z,99077.09
2023-05-05T18:20:41.953Z,99068.19
2023-05-05T18:40:43.629Z,99083.09
2023-05-05T19:01:03.559Z,99089.50
2023-05-05T19:21:23.802Z,99094.41
2023-05-05T19:41:44.105Z,99094.34
2023-05-05T20:02:04.349Z,99083.28
2023-05-05T20:22:24.064Z,99074.63
2023-05-05T20:42:44.438Z,99047.91
2023-05-05T21:02:45.955Z,99039.97
2023-05-05T21:22:47.693Z,99043.47
2023-05-05T21:42:49.349Z,99030.47
2023-05-05T22:02:51.227Z,99031.06
2023-05-05T22:22:52.822Z,99036.91
2023-05-05T22:42:54.729Z,99035.28
2023-05-05T23:02:56.214Z,99026.91
2023-05-05T23:22:57.868Z,99004.03
2023-05-05T23:42:59.347Z,99002.31
